Cooperstown Junction, New York
Current Conditions -  °F | °C
As of 4:15 AM on Monday 20 Oct 2014 (Local Time) from KNY0 Reporting Station
Clear Clear  
Wind Chill: 31°   Ceiling: Unl
Heat Index: 31°   Visibility: 10mi
Dew Point: 28°   Wind: 3mph
Humidity: 90%   Direction: 280°W
Pressure: 30.02"   Gusts: NA
Location:  42.5423°N, 74.8983°W
Report Text: KNY0 200815Z AUTO 28003KT 10SM CLR M01/M02 A3002 RMK AO2 T10061020
Loading
Personal Weather Stations






























Interactive Weather Map
Tropical Storm Tracking
New forecast layout! Learn more

10-Day Weather Forecast

Advertisements
Track Severe Weather on mobile